sensor_id;sensor_type;location;lat;lon;timestamp;P1;durP1;ratioP1;P2;durP2;ratioP2
26838;SDS011;40088;51.214;6.786;2024-03-02T00:02:17;5.55;;;4.95;;
26838;SDS011;40088;51.214;6.786;2024-03-02T00:12:18;6.80;;;5.80;;
26838;SDS011;40088;51.214;6.786;2024-03-02T00:22:18;5.68;;;3.95;;
26838;SDS011;40088;51.214;6.786;2024-03-02T00:32:18;5.70;;;4.90;;
26838;SDS011;40088;51.214;6.786;2024-03-02T00:42:19;6.63;;;4.93;;
26838;SDS011;40088;51.214;6.786;2024-03-02T00:52:19;4.85;;;4.05;;
26838;SDS011;40088;51.214;6.786;2024-03-02T01:02:19;6.15;;;4.60;;
26838;SDS011;40088;51.214;6.786;2024-03-02T01:12:20;4.80;;;4.27;;
26838;SDS011;40088;51.214;6.786;2024-03-02T01:22:20;4.95;;;4.22;;
26838;SDS011;40088;51.214;6.786;2024-03-02T01:32:25;5.30;;;4.55;;
26838;SDS011;40088;51.214;6.786;2024-03-02T01:42:25;5.10;;;4.45;;
26838;SDS011;40088;51.214;6.786;2024-03-02T01:52:26;6.57;;;4.97;;
26838;SDS011;40088;51.214;6.786;2024-03-02T02:02:27;5.45;;;4.90;;
26838;SDS011;40088;51.214;6.786;2024-03-02T02:12:27;5.78;;;4.65;;
26838;SDS011;40088;51.214;6.786;2024-03-02T02:22:28;4.93;;;4.22;;
26838;SDS011;40088;51.214;6.786;2024-03-02T02:32:28;5.88;;;5.13;;
26838;SDS011;40088;51.214;6.786;2024-03-02T02:42:28;6.10;;;5.18;;
26838;SDS011;40088;51.214;6.786;2024-03-02T02:52:35;6.85;;;4.88;;
26838;SDS011;40088;51.214;6.786;2024-03-02T03:02:37;5.60;;;4.53;;
26838;SDS011;40088;51.214;6.786;2024-03-02T03:12:38;5.43;;;4.25;;
26838;SDS011;40088;51.214;6.786;2024-03-02T03:22:40;5.30;;;4.45;;
26838;SDS011;40088;51.214;6.786;2024-03-02T03:32:41;3.92;;;3.53;;
26838;SDS011;40088;51.214;6.786;2024-03-02T03:42:41;5.15;;;4.40;;
26838;SDS011;40088;51.214;6.786;2024-03-02T03:52:41;4.60;;;3.67;;
26838;SDS011;40088;51.214;6.786;2024-03-02T04:02:42;4.85;;;4.18;;
26838;SDS011;40088;51.214;6.786;2024-03-02T04:12:42;6.68;;;5.30;;
26838;SDS011;40088;51.214;6.786;2024-03-02T04:22:42;4.88;;;4.07;;
26838;SDS011;40088;51.214;6.786;2024-03-02T04:32:42;5.30;;;4.70;;
26838;SDS011;40088;51.214;6.786;2024-03-02T04:42:46;5.45;;;4.45;;
26838;SDS011;40088;51.214;6.786;2024-03-02T04:52:46;5.03;;;4.50;;
26838;SDS011;40088;51.214;6.786;2024-03-02T05:02:46;6.30;;;5.50;;
26838;SDS011;40088;51.214;6.786;2024-03-02T05:12:47;5.75;;;4.60;;
26838;SDS011;40088;51.214;6.786;2024-03-02T05:22:56;5.88;;;4.65;;
26838;SDS011;40088;51.214;6.786;2024-03-02T05:32:57;6.40;;;5.13;;
26838;SDS011;40088;51.214;6.786;2024-03-02T05:42:57;5.50;;;4.20;;
26838;SDS011;40088;51.214;6.786;2024-03-02T05:52:57;6.43;;;5.18;;
26838;SDS011;40088;51.214;6.786;2024-03-02T06:02:58;5.47;;;4.93;;
26838;SDS011;40088;51.214;6.786;2024-03-02T06:12:59;4.82;;;4.32;;
26838;SDS011;40088;51.214;6.786;2024-03-02T06:22:59;5.30;;;4.47;;
26838;SDS011;40088;51.214;6.786;2024-03-02T06:32:59;6.55;;;4.57;;
26838;SDS011;40088;51.214;6.786;2024-03-02T06:43:00;6.50;;;4.40;;
26838;SDS011;40088;51.214;6.786;2024-03-02T06:53:00;5.93;;;4.85;;
26838;SDS011;40088;51.214;6.786;2024-03-02T07:03:00;6.10;;;4.90;;
26838;SDS011;40088;51.214;6.786;2024-03-02T07:13:00;6.18;;;5.57;;
26838;SDS011;40088;51.214;6.786;2024-03-02T07:23:01;6.65;;;5.53;;
26838;SDS011;40088;51.214;6.786;2024-03-02T07:33:01;5.13;;;4.35;;
26838;SDS011;40088;51.214;6.786;2024-03-02T07:43:01;6.13;;;5.03;;
26838;SDS011;40088;51.214;6.786;2024-03-02T07:53:02;5.25;;;4.75;;
26838;SDS011;40088;51.214;6.786;2024-03-02T08:03:02;5.60;;;4.85;;
26838;SDS011;40088;51.214;6.786;2024-03-02T08:13:03;4.60;;;3.90;;
26838;SDS011;40088;51.214;6.786;2024-03-02T08:23:04;5.20;;;4.50;;
26838;SDS011;40088;51.214;6.786;2024-03-02T08:33:04;5.15;;;4.65;;
26838;SDS011;40088;51.214;6.786;2024-03-02T08:43:06;6.55;;;4.45;;
26838;SDS011;40088;51.214;6.786;2024-03-02T08:53:06;6.00;;;5.40;;
26838;SDS011;40088;51.214;6.786;2024-03-02T09:03:07;5.90;;;5.00;;
26838;SDS011;40088;51.214;6.786;2024-03-02T09:13:07;6.90;;;4.68;;
26838;SDS011;40088;51.214;6.786;2024-03-02T09:23:07;5.82;;;4.82;;
26838;SDS011;40088;51.214;6.786;2024-03-02T09:33:08;5.38;;;4.88;;
26838;SDS011;40088;51.214;6.786;2024-03-02T09:43:08;6.07;;;5.40;;
26838;SDS011;40088;51.214;6.786;2024-03-02T09:53:09;6.22;;;5.43;;
26838;SDS011;40088;51.214;6.786;2024-03-02T10:03:12;6.07;;;5.27;;
26838;SDS011;40088;51.214;6.786;2024-03-02T10:13:13;5.45;;;4.90;;
26838;SDS011;40088;51.214;6.786;2024-03-02T10:23:14;7.75;;;6.97;;
26838;SDS011;40088;51.214;6.786;2024-03-02T10:33:17;6.35;;;5.22;;
26838;SDS011;40088;51.214;6.786;2024-03-02T10:43:17;6.43;;;5.68;;
26838;SDS011;40088;51.214;6.786;2024-03-02T10:53:19;4.95;;;4.45;;
26838;SDS011;40088;51.214;6.786;2024-03-02T11:03:19;5.68;;;5.07;;
26838;SDS011;40088;51.214;6.786;2024-03-02T11:13:33;7.10;;;4.28;;
26838;SDS011;40088;51.214;6.786;2024-03-02T11:23:34;4.20;;;3.50;;
26838;SDS011;40088;51.214;6.786;2024-03-02T11:33:38;5.13;;;4.63;;
26838;SDS011;40088;51.214;6.786;2024-03-02T11:43:38;4.82;;;4.32;;
26838;SDS011;40088;51.214;6.786;2024-03-02T12:03:42;5.78;;;5.03;;
26838;SDS011;40088;51.214;6.786;2024-03-02T12:13:51;6.10;;;5.50;;
26838;SDS011;40088;51.214;6.786;2024-03-02T12:23:52;5.70;;;5.10;;
26838;SDS011;40088;51.214;6.786;2024-03-02T12:33:52;7.33;;;5.03;;
26838;SDS011;40088;51.214;6.786;2024-03-02T12:43:54;7.43;;;5.70;;
26838;SDS011;40088;51.214;6.786;2024-03-02T12:53:55;7.57;;;5.25;;
26838;SDS011;40088;51.214;6.786;2024-03-02T13:03:57;7.38;;;6.00;;
26838;SDS011;40088;51.214;6.786;2024-03-02T13:14:00;5.53;;;4.93;;
26838;SDS011;40088;51.214;6.786;2024-03-02T13:24:00;6.75;;;4.88;;
26838;SDS011;40088;51.214;6.786;2024-03-02T13:34:01;7.60;;;5.40;;
26838;SDS011;40088;51.214;6.786;2024-03-02T13:44:01;7.10;;;5.22;;
26838;SDS011;40088;51.214;6.786;2024-03-02T13:54:01;6.32;;;4.20;;
26838;SDS011;40088;51.214;6.786;2024-03-02T14:04:03;5.15;;;4.22;;
26838;SDS011;40088;51.214;6.786;2024-03-02T14:14:04;5.57;;;4.53;;
26838;SDS011;40088;51.214;6.786;2024-03-02T14:24:04;3.72;;;2.65;;
26838;SDS011;40088;51.214;6.786;2024-03-02T14:34:04;7.03;;;4.43;;
26838;SDS011;40088;51.214;6.786;2024-03-02T14:44:05;4.90;;;3.78;;
26838;SDS011;40088;51.214;6.786;2024-03-02T14:54:05;3.38;;;3.08;;
26838;SDS011;40088;51.214;6.786;2024-03-02T15:04:05;5.18;;;3.00;;
26838;SDS011;40088;51.214;6.786;2024-03-02T15:14:06;2.88;;;2.42;;
26838;SDS011;40088;51.214;6.786;2024-03-02T15:24:06;4.63;;;3.85;;
26838;SDS011;40088;51.214;6.786;2024-03-02T15:34:07;5.18;;;4.18;;
26838;SDS011;40088;51.214;6.786;2024-03-02T15:44:08;6.60;;;4.43;;
26838;SDS011;40088;51.214;6.786;2024-03-02T15:54:08;4.80;;;3.92;;
26838;SDS011;40088;51.214;6.786;2024-03-02T16:04:09;5.40;;;4.30;;
26838;SDS011;40088;51.214;6.786;2024-03-02T16:14:09;5.00;;;3.83;;
26838;SDS011;40088;51.214;6.786;2024-03-02T16:24:09;5.63;;;4.43;;
26838;SDS011;40088;51.214;6.786;2024-03-02T16:34:10;5.00;;;4.45;;
26838;SDS011;40088;51.214;6.786;2024-03-02T16:44:10;5.72;;;5.03;;
26838;SDS011;40088;51.214;6.786;2024-03-02T16:54:11;6.35;;;4.55;;
26838;SDS011;40088;51.214;6.786;2024-03-02T17:04:12;4.88;;;4.38;;
26838;SDS011;40088;51.214;6.786;2024-03-02T17:14:22;4.82;;;4.28;;
26838;SDS011;40088;51.214;6.786;2024-03-02T17:24:22;5.63;;;5.03;;
26838;SDS011;40088;51.214;6.786;2024-03-02T17:34:22;4.28;;;3.83;;
26838;SDS011;40088;51.214;6.786;2024-03-02T17:44:23;4.75;;;4.25;;
26838;SDS011;40088;51.214;6.786;2024-03-02T17:54:24;5.65;;;4.53;;
26838;SDS011;40088;51.214;6.786;2024-03-02T18:04:24;7.75;;;6.07;;
26838;SDS011;40088;51.214;6.786;2024-03-02T18:14:24;7.05;;;6.35;;
26838;SDS011;40088;51.214;6.786;2024-03-02T18:24:25;6.63;;;4.95;;
26838;SDS011;40088;51.214;6.786;2024-03-02T18:34:27;5.07;;;4.53;;
26838;SDS011;40088;51.214;6.786;2024-03-02T18:44:28;6.47;;;4.03;;
26838;SDS011;40088;51.214;6.786;2024-03-02T18:54:28;7.45;;;5.55;;
26838;SDS011;40088;51.214;6.786;2024-03-02T19:04:29;5.38;;;4.88;;
26838;SDS011;40088;51.214;6.786;2024-03-02T19:14:29;4.60;;;4.10;;
26838;SDS011;40088;51.214;6.786;2024-03-02T19:24:29;5.68;;;5.10;;
26838;SDS011;40088;51.214;6.786;2024-03-02T19:34:29;9.07;;;7.80;;
26838;SDS011;40088;51.214;6.786;2024-03-02T19:44:30;8.98;;;7.63;;
26838;SDS011;40088;51.214;6.786;2024-03-02T19:54:32;8.83;;;7.43;;
26838;SDS011;40088;51.214;6.786;2024-03-02T20:04:33;7.47;;;6.70;;
26838;SDS011;40088;51.214;6.786;2024-03-02T20:14:33;7.95;;;6.45;;
26838;SDS011;40088;51.214;6.786;2024-03-02T20:24:34;9.70;;;8.13;;
26838;SDS011;40088;51.214;6.786;2024-03-02T20:34:34;10.13;;;8.43;;
26838;SDS011;40088;51.214;6.786;2024-03-02T20:44:34;10.05;;;8.23;;
26838;SDS011;40088;51.214;6.786;2024-03-02T20:54:34;9.60;;;7.40;;
26838;SDS011;40088;51.214;6.786;2024-03-02T21:04:36;10.35;;;8.60;;
26838;SDS011;40088;51.214;6.786;2024-03-02T21:14:37;10.90;;;9.20;;
26838;SDS011;40088;51.214;6.786;2024-03-02T21:24:39;13.13;;;9.77;;
26838;SDS011;40088;51.214;6.786;2024-03-02T21:34:42;9.63;;;7.97;;
26838;SDS011;40088;51.214;6.786;2024-03-02T21:44:43;11.48;;;9.27;;
26838;SDS011;40088;51.214;6.786;2024-03-02T21:54:43;11.27;;;9.38;;
26838;SDS011;40088;51.214;6.786;2024-03-02T22:04:43;12.13;;;9.65;;
26838;SDS011;40088;51.214;6.786;2024-03-02T22:14:43;10.18;;;8.20;;
26838;SDS011;40088;51.214;6.786;2024-03-02T22:24:44;11.57;;;9.95;;
26838;SDS011;40088;51.214;6.786;2024-03-02T22:34:44;10.90;;;9.23;;
26838;SDS011;40088;51.214;6.786;2024-03-02T22:44:44;10.32;;;9.07;;
26838;SDS011;40088;51.214;6.786;2024-03-02T22:54:44;12.05;;;9.48;;
26838;SDS011;40088;51.214;6.786;2024-03-02T23:04:45;11.75;;;9.20;;
26838;SDS011;40088;51.214;6.786;2024-03-02T23:14:46;10.15;;;8.02;;
26838;SDS011;40088;51.214;6.786;2024-03-02T23:24:46;10.93;;;9.15;;
26838;SDS011;40088;51.214;6.786;2024-03-02T23:34:48;11.23;;;8.88;;
26838;SDS011;40088;51.214;6.786;2024-03-02T23:44:48;9.25;;;7.63;;
26838;SDS011;40088;51.214;6.786;2024-03-02T23:54:48;12.18;;;9.65;;
